ANA350 ROAH-RJTT
Flight info
| Callsign | ANA350 |
|---|---|
| Flight time | N/A |
| Altitude | 39000 |
| Route | AMAMI Y574 SHIBK Y57 SUKBO Y571 BILLY Y21 AKSEL |
| Aircraft | A20N/L-SDE2E3FGHIRWXY/39000 |
Departure
| Time | N/A |
|---|---|
| Airport | Naha International Airport (ROAH) |
Arrival
| Time | 2026-02-17 06:11 |
|---|---|
| Airport | Tokyo Haneda International Airport (RJTT) |
| Time | Latitude | Longitude | Altitude | Speed | Heading |
|---|---|---|---|---|---|
| 2026-02-17 04:35 | 27.73313 | 129.14359 | 38887 ft | 512 kts | 16° |
| 2026-02-17 04:35 | 27.76445 | 129.16287 | 38997 ft | 512 kts | 16° |
| 2026-02-17 04:35 | 27.79569 | 129.18210 | 39127 ft | 512 kts | 16° |
| 2026-02-17 04:35 | 27.82706 | 129.20142 | 39124 ft | 513 kts | 16° |
| 2026-02-17 04:36 | 27.88961 | 129.24000 | 39121 ft | 512 kts | 16° |
| 2026-02-17 04:36 | 27.95206 | 129.27857 | 39122 ft | 512 kts | 16° |
| 2026-02-17 04:37 | 28.01463 | 129.31726 | 39121 ft | 512 kts | 15° |
| 2026-02-17 04:37 | 28.07686 | 129.35580 | 39104 ft | 512 kts | 15° |
| 2026-02-17 04:38 | 28.13930 | 129.39453 | 39118 ft | 512 kts | 15° |
| 2026-02-17 04:39 | 28.23308 | 129.45273 | 39114 ft | 511 kts | 15° |
| 2026-02-17 04:39 | 28.29558 | 129.49155 | 39100 ft | 512 kts | 15° |
| 2026-02-17 04:40 | 28.35790 | 129.53055 | 39096 ft | 515 kts | 18° |
| 2026-02-17 04:40 | 28.37799 | 129.54562 | 39114 ft | 529 kts | 26° |
| 2026-02-17 04:40 | 28.40581 | 129.57408 | 39095 ft | 547 kts | 38° |
| 2026-02-17 04:40 | 28.42944 | 129.60851 | 39096 ft | 560 kts | 51° |
| 2026-02-17 04:41 | 28.45268 | 129.66171 | 39103 ft | 575 kts | 67° |
| 2026-02-17 04:41 | 28.46316 | 129.70583 | 39099 ft | 581 kts | 80° |
| 2026-02-17 04:41 | 28.46779 | 129.75150 | 39104 ft | 583 kts | 86° |
| 2026-02-17 04:42 | 28.47240 | 129.82798 | 39098 ft | 582 kts | 86° |
| 2026-02-17 04:42 | 28.48027 | 129.91962 | 39108 ft | 584 kts | 83° |
| 2026-02-17 04:43 | 28.49476 | 130.05722 | 39109 ft | 583 kts | 83° |
| 2026-02-17 04:43 | 28.51359 | 130.14632 | 39108 ft | 575 kts | 63° |
| 2026-02-17 04:44 | 28.53091 | 130.18688 | 39095 ft | 566 kts | 52° |
| 2026-02-17 04:44 | 28.55237 | 130.22400 | 39087 ft | 560 kts | 47° |
| 2026-02-17 04:44 | 28.59671 | 130.29691 | 39083 ft | 561 kts | 47° |
| 2026-02-17 04:45 | 28.64072 | 130.36973 | 39084 ft | 561 kts | 47° |
| 2026-02-17 04:45 | 28.68498 | 130.44311 | 39080 ft | 561 kts | 47° |
| 2026-02-17 04:46 | 28.72919 | 130.51650 | 39080 ft | 562 kts | 47° |
| 2026-02-17 04:47 | 28.79536 | 130.62650 | 39080 ft | 563 kts | 47° |
| 2026-02-17 04:47 | 28.83975 | 130.70038 | 39085 ft | 564 kts | 47° |
| 2026-02-17 04:48 | 28.88420 | 130.77451 | 39079 ft | 566 kts | 47° |
| 2026-02-17 04:48 | 28.92862 | 130.84874 | 39095 ft | 567 kts | 47° |
| 2026-02-17 04:49 | 28.97307 | 130.92316 | 39072 ft | 567 kts | 47° |
| 2026-02-17 04:49 | 29.01755 | 130.99775 | 39091 ft | 568 kts | 47° |
| 2026-02-17 04:50 | 29.06204 | 131.07250 | 39086 ft | 568 kts | 47° |
| 2026-02-17 04:50 | 29.10619 | 131.14681 | 39069 ft | 568 kts | 47° |
| 2026-02-17 04:51 | 29.17270 | 131.25900 | 39091 ft | 568 kts | 47° |
| 2026-02-17 04:51 | 29.21710 | 131.33405 | 39087 ft | 568 kts | 47° |
| 2026-02-17 04:52 | 29.26135 | 131.40900 | 39105 ft | 569 kts | 47° |
| 2026-02-17 04:52 | 29.30543 | 131.48377 | 39073 ft | 569 kts | 47° |
| 2026-02-17 04:53 | 29.34976 | 131.55913 | 39072 ft | 570 kts | 47° |
| 2026-02-17 04:53 | 29.39407 | 131.63461 | 39118 ft | 571 kts | 47° |
| 2026-02-17 04:54 | 29.43849 | 131.71044 | 39061 ft | 573 kts | 47° |
| 2026-02-17 04:55 | 29.50479 | 131.82393 | 39065 ft | 573 kts | 47° |
| 2026-02-17 04:55 | 29.54925 | 131.90019 | 39064 ft | 574 kts | 47° |
| 2026-02-17 04:56 | 29.59364 | 131.97646 | 39066 ft | 574 kts | 47° |
| 2026-02-17 04:56 | 29.63787 | 132.05265 | 39056 ft | 571 kts | 48° |
| 2026-02-17 04:57 | 29.68558 | 132.12472 | 39053 ft | 565 kts | 40° |
| 2026-02-17 04:57 | 29.73515 | 132.19408 | 39060 ft | 564 kts | 40° |
| 2026-02-17 04:58 | 29.78490 | 132.26401 | 39103 ft | 563 kts | 40° |
| 2026-02-17 04:58 | 29.83477 | 132.33414 | 39058 ft | 567 kts | 40° |
| 2026-02-17 04:59 | 29.90954 | 132.43960 | 39051 ft | 563 kts | 40° |
| 2026-02-17 04:59 | 29.95885 | 132.50926 | 39055 ft | 565 kts | 40° |
| 2026-02-17 05:00 | 30.00862 | 132.57969 | 39060 ft | 566 kts | 40° |
| 2026-02-17 05:00 | 30.05824 | 132.65007 | 39104 ft | 563 kts | 40° |
| 2026-02-17 05:01 | 30.10790 | 132.72057 | 39058 ft | 566 kts | 40° |
| 2026-02-17 05:01 | 30.15758 | 132.79126 | 39065 ft | 566 kts | 40° |
| 2026-02-17 05:02 | 30.20692 | 132.86159 | 39069 ft | 568 kts | 40° |
| 2026-02-17 05:03 | 30.28147 | 132.96811 | 39067 ft | 566 kts | 40° |
| 2026-02-17 05:03 | 30.33104 | 133.03908 | 39135 ft | 568 kts | 40° |
| 2026-02-17 05:04 | 30.38092 | 133.11057 | 39061 ft | 570 kts | 40° |
| 2026-02-17 05:04 | 30.43072 | 133.18217 | 39072 ft | 570 kts | 40° |
| 2026-02-17 05:05 | 30.48043 | 133.25373 | 39067 ft | 570 kts | 40° |
| 2026-02-17 05:05 | 30.53016 | 133.32545 | 39070 ft | 570 kts | 40° |
| 2026-02-17 05:06 | 30.57948 | 133.39668 | 39076 ft | 571 kts | 41° |
| 2026-02-17 05:06 | 30.62927 | 133.46875 | 39083 ft | 573 kts | 40° |
| 2026-02-17 05:07 | 30.70384 | 133.57700 | 39073 ft | 570 kts | 40° |
| 2026-02-17 05:07 | 30.75362 | 133.64936 | 39065 ft | 573 kts | 40° |
| 2026-02-17 05:08 | 30.80306 | 133.72138 | 39080 ft | 572 kts | 40° |
| 2026-02-17 05:08 | 30.85274 | 133.79385 | 39086 ft | 574 kts | 40° |
| 2026-02-17 05:09 | 30.90259 | 133.86669 | 39087 ft | 574 kts | 40° |
| 2026-02-17 05:09 | 30.95234 | 133.93951 | 39091 ft | 575 kts | 40° |
| 2026-02-17 05:10 | 31.00222 | 134.01265 | 39088 ft | 576 kts | 40° |
| 2026-02-17 05:11 | 31.07636 | 134.12170 | 39084 ft | 573 kts | 40° |
| 2026-02-17 05:11 | 31.12613 | 134.19495 | 39082 ft | 577 kts | 40° |
| 2026-02-17 05:12 | 31.17584 | 134.26837 | 39077 ft | 575 kts | 40° |
| 2026-02-17 05:12 | 31.22550 | 134.34182 | 39095 ft | 577 kts | 40° |
| 2026-02-17 05:13 | 31.27506 | 134.41522 | 39095 ft | 579 kts | 40° |
| 2026-02-17 05:13 | 31.32484 | 134.48919 | 39086 ft | 575 kts | 40° |
| 2026-02-17 05:14 | 31.37453 | 134.56307 | 39086 ft | 578 kts | 40° |
| 2026-02-17 05:14 | 31.42419 | 134.63707 | 39080 ft | 577 kts | 41° |
| 2026-02-17 05:15 | 31.49828 | 134.74772 | 39091 ft | 579 kts | 41° |
| 2026-02-17 05:15 | 31.54792 | 134.82207 | 39092 ft | 579 kts | 41° |
| 2026-02-17 05:16 | 31.59755 | 134.89654 | 39095 ft | 579 kts | 41° |
| 2026-02-17 05:16 | 31.64701 | 134.97089 | 39087 ft | 579 kts | 41° |
| 2026-02-17 05:17 | 31.69630 | 135.04514 | 39085 ft | 578 kts | 41° |
| 2026-02-17 05:17 | 31.74780 | 135.11670 | 39081 ft | 568 kts | 35° |
| 2026-02-17 05:18 | 31.80086 | 135.18553 | 39076 ft | 568 kts | 35° |
| 2026-02-17 05:19 | 31.88030 | 135.28907 | 39078 ft | 568 kts | 36° |
| 2026-02-17 05:19 | 31.93291 | 135.35788 | 39079 ft | 568 kts | 36° |
| 2026-02-17 05:20 | 31.98584 | 135.42722 | 39085 ft | 569 kts | 36° |
| 2026-02-17 05:20 | 32.03877 | 135.49670 | 39084 ft | 569 kts | 36° |
| 2026-02-17 05:21 | 32.09168 | 135.56630 | 39086 ft | 570 kts | 36° |
| 2026-02-17 05:21 | 32.17114 | 135.67104 | 39092 ft | 571 kts | 36° |
| 2026-02-17 05:22 | 32.22407 | 135.74099 | 39123 ft | 571 kts | 36° |
| 2026-02-17 05:23 | 32.30321 | 135.84584 | 39084 ft | 568 kts | 36° |
| 2026-02-17 05:23 | 32.35551 | 135.91523 | 39089 ft | 569 kts | 36° |
| 2026-02-17 05:24 | 32.40819 | 135.98530 | 39101 ft | 569 kts | 36° |
| 2026-02-17 05:24 | 32.46076 | 136.05534 | 39092 ft | 568 kts | 36° |
| 2026-02-17 05:25 | 32.51332 | 136.12539 | 39095 ft | 569 kts | 36° |
| 2026-02-17 05:25 | 32.56593 | 136.19566 | 39101 ft | 570 kts | 36° |
| 2026-02-17 05:26 | 32.61856 | 136.26609 | 39102 ft | 571 kts | 36° |
| 2026-02-17 05:26 | 32.67127 | 136.33678 | 39101 ft | 571 kts | 36° |
| 2026-02-17 05:27 | 32.74997 | 136.44257 | 39092 ft | 571 kts | 36° |
| 2026-02-17 05:27 | 32.80259 | 136.51348 | 39091 ft | 572 kts | 36° |
| 2026-02-17 05:28 | 32.85525 | 136.58459 | 39112 ft | 573 kts | 36° |
| 2026-02-17 05:28 | 32.90798 | 136.65591 | 39085 ft | 573 kts | 36° |
| 2026-02-17 05:29 | 32.95177 | 136.71520 | 39089 ft | 573 kts | 36° |
| 2026-02-17 05:29 | 33.01295 | 136.79815 | 39089 ft | 573 kts | 36° |
| 2026-02-17 05:30 | 33.05666 | 136.85754 | 39087 ft | 573 kts | 36° |
| 2026-02-17 05:31 | 33.13544 | 136.96482 | 39082 ft | 573 kts | 36° |
| 2026-02-17 05:31 | 33.18799 | 137.03659 | 39084 ft | 575 kts | 36° |
| 2026-02-17 05:32 | 33.24068 | 137.10866 | 39089 ft | 575 kts | 36° |
| 2026-02-17 05:32 | 33.29289 | 137.18024 | 39073 ft | 575 kts | 36° |
| 2026-02-17 05:33 | 33.34547 | 137.25247 | 39075 ft | 574 kts | 36° |
| 2026-02-17 05:33 | 33.39786 | 137.32459 | 39076 ft | 574 kts | 36° |
| 2026-02-17 05:34 | 33.45025 | 137.39686 | 39072 ft | 574 kts | 36° |
| 2026-02-17 05:34 | 33.50265 | 137.46928 | 39078 ft | 574 kts | 36° |
| 2026-02-17 05:35 | 33.58078 | 137.57754 | 39086 ft | 574 kts | 36° |
| 2026-02-17 05:35 | 33.62630 | 137.65266 | 39082 ft | 596 kts | 51° |
| 2026-02-17 05:36 | 33.66646 | 137.74049 | 39072 ft | 599 kts | 52° |
| 2026-02-17 05:36 | 33.70333 | 137.82087 | 39097 ft | 601 kts | 52° |
| 2026-02-17 05:37 | 33.74336 | 137.90845 | 39084 ft | 601 kts | 52° |
| 2026-02-17 05:37 | 33.78351 | 137.99661 | 39091 ft | 601 kts | 52° |
| 2026-02-17 05:38 | 33.82346 | 138.08463 | 39092 ft | 595 kts | 52° |
| 2026-02-17 05:39 | 33.88317 | 138.21642 | 38733 ft | 597 kts | 52° |
| 2026-02-17 05:39 | 33.90302 | 138.26035 | 38116 ft | 598 kts | 52° |
| 2026-02-17 05:39 | 33.92289 | 138.30442 | 37412 ft | 599 kts | 52° |
| 2026-02-17 05:39 | 33.94262 | 138.34862 | 36729 ft | 600 kts | 52° |
| 2026-02-17 05:40 | 33.96232 | 138.39295 | 36065 ft | 600 kts | 53° |
| 2026-02-17 05:40 | 33.98198 | 138.43726 | 35416 ft | 599 kts | 53° |
| 2026-02-17 05:40 | 34.00148 | 138.48129 | 34802 ft | 593 kts | 53° |
| 2026-02-17 05:40 | 34.02093 | 138.52520 | 34216 ft | 595 kts | 53° |
| 2026-02-17 05:41 | 34.04043 | 138.56917 | 33781 ft | 593 kts | 53° |
| 2026-02-17 05:41 | 34.05977 | 138.61289 | 33033 ft | 587 kts | 53° |
| 2026-02-17 05:41 | 34.07885 | 138.65610 | 32235 ft | 580 kts | 54° |
| 2026-02-17 05:41 | 34.09745 | 138.69820 | 31426 ft | 573 kts | 54° |
| 2026-02-17 05:42 | 34.11613 | 138.74050 | 30589 ft | 566 kts | 55° |
| 2026-02-17 05:42 | 34.13454 | 138.78224 | 29620 ft | 560 kts | 56° |
| 2026-02-17 05:42 | 34.15275 | 138.82357 | 28462 ft | 555 kts | 56° |
| 2026-02-17 05:43 | 34.18826 | 138.90445 | 26801 ft | 532 kts | 57° |
| 2026-02-17 05:43 | 34.20545 | 138.94368 | 25980 ft | 522 kts | 57° |
| 2026-02-17 05:43 | 34.22227 | 138.98209 | 25186 ft | 512 kts | 57° |
| 2026-02-17 05:43 | 34.23861 | 139.01950 | 24678 ft | 495 kts | 57° |
| 2026-02-17 05:44 | 34.25424 | 139.05532 | 24206 ft | 480 kts | 57° |
| 2026-02-17 05:44 | 34.26970 | 139.09076 | 23748 ft | 470 kts | 57° |
| 2026-02-17 05:44 | 34.28469 | 139.12570 | 23213 ft | 464 kts | 60° |
| 2026-02-17 05:44 | 34.29694 | 139.16064 | 22767 ft | 456 kts | 63° |
| 2026-02-17 05:45 | 34.30915 | 139.19604 | 22299 ft | 449 kts | 63° |
| 2026-02-17 05:45 | 34.32116 | 139.23073 | 21838 ft | 443 kts | 63° |
| 2026-02-17 05:45 | 34.33298 | 139.26492 | 21370 ft | 437 kts | 63° |
| 2026-02-17 05:45 | 34.34359 | 139.29567 | 20951 ft | 432 kts | 63° |
| 2026-02-17 05:46 | 34.35509 | 139.32904 | 20513 ft | 427 kts | 63° |
| 2026-02-17 05:46 | 34.36643 | 139.36202 | 20061 ft | 422 kts | 64° |
| 2026-02-17 05:46 | 34.37760 | 139.39467 | 19614 ft | 418 kts | 64° |
| 2026-02-17 05:47 | 34.39968 | 139.45905 | 18732 ft | 410 kts | 64° |
| 2026-02-17 05:47 | 34.42098 | 139.52123 | 17826 ft | 402 kts | 64° |
| 2026-02-17 05:47 | 34.43178 | 139.55285 | 17382 ft | 397 kts | 64° |
| 2026-02-17 05:48 | 34.44168 | 139.58183 | 16965 ft | 393 kts | 64° |
| 2026-02-17 05:48 | 34.45207 | 139.61230 | 16535 ft | 389 kts | 65° |
| 2026-02-17 05:48 | 34.46221 | 139.64213 | 16110 ft | 385 kts | 65° |
| 2026-02-17 05:48 | 34.47240 | 139.67209 | 15666 ft | 382 kts | 65° |
| 2026-02-17 05:49 | 34.48368 | 139.70183 | 15232 ft | 398 kts | 54° |
| 2026-02-17 05:49 | 34.50176 | 139.72755 | 14780 ft | 403 kts | 35° |
| 2026-02-17 05:49 | 34.52468 | 139.74646 | 14559 ft | 393 kts | 25° |
| 2026-02-17 05:49 | 34.54778 | 139.76317 | 14446 ft | 381 kts | 24° |
| 2026-02-17 05:50 | 34.57019 | 139.77913 | 14312 ft | 367 kts | 24° |
| 2026-02-17 05:50 | 34.59179 | 139.79461 | 14182 ft | 354 kts | 24° |
| 2026-02-17 05:50 | 34.61258 | 139.80970 | 14060 ft | 341 kts | 24° |
| 2026-02-17 05:51 | 34.65154 | 139.83819 | 13843 ft | 317 kts | 23° |
| 2026-02-17 05:51 | 34.67016 | 139.85182 | 13614 ft | 309 kts | 24° |
| 2026-02-17 05:51 | 34.68857 | 139.86529 | 13228 ft | 307 kts | 24° |
| 2026-02-17 05:51 | 34.70683 | 139.87868 | 12837 ft | 305 kts | 24° |
| 2026-02-17 05:52 | 34.72494 | 139.89200 | 12449 ft | 304 kts | 25° |
| 2026-02-17 05:52 | 34.74295 | 139.90528 | 12169 ft | 298 kts | 25° |
| 2026-02-17 05:52 | 34.76048 | 139.91828 | 12090 ft | 295 kts | 25° |
| 2026-02-17 05:52 | 34.77790 | 139.93116 | 11998 ft | 296 kts | 25° |
| 2026-02-17 05:53 | 34.79545 | 139.94418 | 11985 ft | 295 kts | 27° |
| 2026-02-17 05:53 | 34.81066 | 139.96134 | 11986 ft | 305 kts | 53° |
| 2026-02-17 05:53 | 34.81915 | 139.98507 | 11992 ft | 310 kts | 76° |
| 2026-02-17 05:53 | 34.82227 | 140.01104 | 11988 ft | 310 kts | 85° |
| 2026-02-17 05:54 | 34.82381 | 140.03721 | 11990 ft | 309 kts | 86° |
| 2026-02-17 05:54 | 34.82549 | 140.06332 | 11990 ft | 309 kts | 85° |
| 2026-02-17 05:54 | 34.82767 | 140.08941 | 11990 ft | 310 kts | 83° |
| 2026-02-17 05:55 | 34.84217 | 140.13763 | 11989 ft | 307 kts | 57° |
| 2026-02-17 05:55 | 34.85276 | 140.16027 | 11987 ft | 307 kts | 58° |
| 2026-02-17 05:55 | 34.86310 | 140.18260 | 11987 ft | 306 kts | 58° |
| 2026-02-17 05:55 | 34.87354 | 140.20528 | 11988 ft | 307 kts | 58° |
| 2026-02-17 05:56 | 34.88400 | 140.22796 | 11990 ft | 307 kts | 56° |
| 2026-02-17 05:56 | 34.89697 | 140.24828 | 11993 ft | 301 kts | 38° |
| 2026-02-17 05:56 | 34.91322 | 140.26390 | 11994 ft | 297 kts | 30° |
| 2026-02-17 05:56 | 34.93003 | 140.27861 | 11993 ft | 297 kts | 30° |
| 2026-02-17 05:57 | 34.94678 | 140.29343 | 11993 ft | 297 kts | 30° |
| 2026-02-17 05:57 | 34.96346 | 140.30826 | 11993 ft | 297 kts | 30° |
| 2026-02-17 05:57 | 34.98016 | 140.32311 | 11993 ft | 297 kts | 30° |
| 2026-02-17 05:57 | 34.99819 | 140.33381 | 11999 ft | 283 kts | 4° |
| 2026-02-17 05:58 | 35.01715 | 140.33389 | 11997 ft | 266 kts | 337° |
| 2026-02-17 05:58 | 35.03280 | 140.32386 | 11995 ft | 249 kts | 309° |
| 2026-02-17 05:58 | 35.04203 | 140.30679 | 11996 ft | 239 kts | 286° |
| 2026-02-17 05:59 | 35.05344 | 140.26851 | 11672 ft | 242 kts | 287° |
| 2026-02-17 05:59 | 35.05963 | 140.24944 | 11400 ft | 239 kts | 288° |
| 2026-02-17 05:59 | 35.06579 | 140.23099 | 11172 ft | 237 kts | 288° |
| 2026-02-17 05:59 | 35.07210 | 140.21226 | 10942 ft | 239 kts | 288° |
| 2026-02-17 06:00 | 35.07843 | 140.19352 | 10706 ft | 237 kts | 288° |
| 2026-02-17 06:00 | 35.08476 | 140.17479 | 10483 ft | 240 kts | 288° |
| 2026-02-17 06:00 | 35.09111 | 140.15591 | 10255 ft | 239 kts | 287° |
| 2026-02-17 06:00 | 35.09742 | 140.13713 | 10016 ft | 240 kts | 287° |
| 2026-02-17 06:01 | 35.10375 | 140.11828 | 9772 ft | 239 kts | 287° |
| 2026-02-17 06:01 | 35.11003 | 140.09952 | 9537 ft | 239 kts | 288° |
| 2026-02-17 06:01 | 35.11624 | 140.08096 | 9333 ft | 238 kts | 288° |
| 2026-02-17 06:01 | 35.12221 | 140.06208 | 9185 ft | 237 kts | 285° |
| 2026-02-17 06:02 | 35.12820 | 140.04314 | 8667 ft | 242 kts | 288° |
| 2026-02-17 06:02 | 35.13477 | 140.02433 | 8352 ft | 238 kts | 289° |
| 2026-02-17 06:02 | 35.14120 | 140.00585 | 8115 ft | 232 kts | 288° |
| 2026-02-17 06:03 | 35.16199 | 139.97707 | 7905 ft | 235 kts | 335° |
| 2026-02-17 06:03 | 35.17787 | 139.97144 | 9949 ft | 246 kts | 342° |
| 2026-02-17 06:03 | 35.19490 | 139.96760 | 9837 ft | 248 kts | 344° |
| 2026-02-17 06:03 | 35.21190 | 139.96416 | 9503 ft | 247 kts | 344° |
| 2026-02-17 06:04 | 35.22872 | 139.96055 | 9088 ft | 244 kts | 343° |
| 2026-02-17 06:04 | 35.24535 | 139.95667 | 8612 ft | 243 kts | 343° |
| 2026-02-17 06:04 | 35.26189 | 139.95264 | 8161 ft | 240 kts | 343° |
| 2026-02-17 06:04 | 35.27802 | 139.94864 | 7721 ft | 238 kts | 343° |
| 2026-02-17 06:05 | 35.29385 | 139.94472 | 7497 ft | 225 kts | 343° |
| 2026-02-17 06:05 | 35.30905 | 139.94090 | 7060 ft | 222 kts | 341° |
| 2026-02-17 06:05 | 35.32353 | 139.93530 | 6382 ft | 216 kts | 332° |
| 2026-02-17 06:05 | 35.33690 | 139.92726 | 5815 ft | 207 kts | 327° |
| 2026-02-17 06:06 | 35.34943 | 139.91852 | 5332 ft | 204 kts | 327° |
| 2026-02-17 06:06 | 35.36186 | 139.90954 | 5083 ft | 216 kts | 327° |
| 2026-02-17 06:06 | 35.37481 | 139.90000 | 4867 ft | 226 kts | 327° |
| 2026-02-17 06:07 | 35.40194 | 139.87913 | 3512 ft | 218 kts | 329° |
| 2026-02-17 06:07 | 35.41421 | 139.86927 | 2882 ft | 209 kts | 330° |
| 2026-02-17 06:07 | 35.42602 | 139.85987 | 2588 ft | 188 kts | 333° |
| 2026-02-17 06:07 | 35.43680 | 139.85288 | 2463 ft | 165 kts | 340° |
| 2026-02-17 06:08 | 35.44733 | 139.84820 | 2322 ft | 163 kts | 344° |
| 2026-02-17 06:08 | 35.45830 | 139.84345 | 1952 ft | 169 kts | 339° |
| 2026-02-17 06:08 | 35.46797 | 139.83633 | 1951 ft | 163 kts | 329° |
| 2026-02-17 06:08 | 35.47798 | 139.82827 | 1519 ft | 171 kts | 330° |
| 2026-02-17 06:09 | 35.48773 | 139.82061 | 1197 ft | 160 kts | 332° |
| 2026-02-17 06:09 | 35.49682 | 139.81390 | 968 ft | 146 kts | 333° |
| 2026-02-17 06:09 | 35.50520 | 139.80795 | 776 ft | 133 kts | 334° |
| 2026-02-17 06:09 | 35.51317 | 139.80227 | 617 ft | 133 kts | 334° |
| 2026-02-17 06:10 | 35.52103 | 139.79656 | 388 ft | 129 kts | 334° |
| 2026-02-17 06:10 | 35.52890 | 139.79099 | 246 ft | 133 kts | 334° |
| 2026-02-17 06:10 | 35.53688 | 139.78541 | 70 ft | 131 kts | 334° |
| 2026-02-17 06:11 | 35.54834 | 139.77735 | 27 ft | 25 kts | 329° |
| 2026-02-17 06:11 | 35.55002 | 139.77648 | 27 ft | 27 kts | 347° |
| 2026-02-17 06:11 | 35.55190 | 139.77640 | 25 ft | 23 kts | 7° |
| 2026-02-17 06:11 | 35.55309 | 139.77654 | 25 ft | 11 kts | 49° |
| 2026-02-17 06:12 | 35.55332 | 139.77713 | 24 ft | 8 kts | 59° |
| 2026-02-17 06:12 | 35.55320 | 139.77768 | 24 ft | 9 kts | 144° |
| 2026-02-17 06:12 | 35.55259 | 139.77817 | 24 ft | 13 kts | 152° |
| 2026-02-17 06:12 | 35.55171 | 139.77874 | 25 ft | 16 kts | 149° |
| 2026-02-17 06:13 | 35.55067 | 139.77952 | 25 ft | 19 kts | 148° |
| 2026-02-17 06:13 | 35.54950 | 139.78043 | 24 ft | 21 kts | 148° |
| 2026-02-17 06:13 | 35.54815 | 139.78126 | 24 ft | 23 kts | 151° |
| 2026-02-17 06:13 | 35.54724 | 139.78190 | 27 ft | 24 kts | 150° |
| 2026-02-17 06:14 | 35.54523 | 139.78334 | 27 ft | 20 kts | 149° |
| 2026-02-17 06:14 | 35.54489 | 139.78358 | 24 ft | 6 kts | 150° |
| 2026-02-17 06:14 | 35.54459 | 139.78379 | 25 ft | 9 kts | 150° |
| 2026-02-17 06:15 | 35.54292 | 139.78534 | 25 ft | 16 kts | 98° |
| 2026-02-17 06:15 | 35.54337 | 139.78649 | 24 ft | 15 kts | 61° |
| 2026-02-17 06:15 | 35.54393 | 139.78772 | 26 ft | 18 kts | 61° |
| 2026-02-17 06:15 | 35.54450 | 139.78884 | 24 ft | 15 kts | 59° |
| 2026-02-17 06:16 | 35.54506 | 139.79004 | 27 ft | 18 kts | 60° |
| 2026-02-17 06:16 | 35.54571 | 139.79141 | 27 ft | 17 kts | 59° |
| 2026-02-17 06:16 | 35.54582 | 139.79163 | 25 ft | 4 kts | 59° |
| 2026-02-17 06:17 | 35.54640 | 139.79285 | 24 ft | 12 kts | 59° |
| 2026-02-17 06:17 | 35.54688 | 139.79383 | 24 ft | 15 kts | 59° |
| 2026-02-17 06:17 | 35.54726 | 139.79462 | 26 ft | 17 kts | 59° |
| 2026-02-17 06:17 | 35.54820 | 139.79529 | 23 ft | 18 kts | 342° |
| 2026-02-17 06:18 | 35.54936 | 139.79446 | 25 ft | 21 kts | 330° |
| 2026-02-17 06:18 | 35.55063 | 139.79343 | 25 ft | 23 kts | 300° |
| 2026-02-17 06:18 | 35.55072 | 139.79299 | 23 ft | 3 kts | 271° |
| 2026-02-17 06:19 | 35.55030 | 139.79201 | 25 ft | 10 kts | 258° |
| 2026-02-17 06:19 | 35.55075 | 139.79124 | 23 ft | 13 kts | 333° |
| 2026-02-17 06:19 | 35.55143 | 139.79093 | 25 ft | 2 kts | 39° |
| 2026-02-17 06:19 | 35.55149 | 139.79108 | 23 ft | 1 kts | 64° |
| 2026-02-17 06:20 | 35.55160 | 139.79133 | 23 ft | 5 kts | 60° |
| 2026-02-17 06:20 | 35.55173 | 139.79159 | 25 ft | 0 kts | 59° |